Alger, Michigan
Current Conditions -  °F | °C
As of 7:53 PM on Friday 24 Oct 2014 (Local Time) from KHTL Reporting Station
Overcast Overcast  
Wind Chill: 52°   Ceiling: 1700
Heat Index: 52°   Visibility: 10mi
Dew Point: 48°   Wind: 5mph
Humidity: 86%   Direction: 250°WSW
Pressure: 29.95"   Gusts: NA
Location:  44.13°N, 84.12°W
Report Text: KHTL 242353Z AUTO 25004KT 10SM OVC017 11/09 A2995 RMK AO2 SLP148 T01110089 10111 20106 58000
Loading
Personal Weather Stations






























Interactive Weather Map
Tropical Storm Tracking
New forecast layout! Learn more

10-Day Weather Forecast

Advertisements
Track Severe Weather on mobile